Time;durP1;ratioP1;P1;durP2;ratioP2;P2;SDS_P1;SDS_P2;PMS_P1;PMS_P2;Temp;Humidity;BMP_temperature;BMP_pressure;BME280_temperature;BME280_humidity;BME280_pressure;Samples;Min_cycle;Max_cycle;Signal;HPM_P1;HPM_P2
2022/07/20 04:22:44;;;;;;;12.10;8.40;;;;;;;20.15;63.54;100079.81;5088691;28;20332;-69
2022/07/20 04:25:10;;;;;;;11.07;6.07;;;;;;;20.10;64.50;100079.69;5088879;28;20036;-70
2022/07/20 04:27:35;;;;;;;9.10;6.55;;;;;;;20.17;63.82;100082.25;5087646;28;20051;-70
2022/07/20 04:30:00;;;;;;;10.63;5.82;;;;;;;20.14;63.87;100086.25;5088676;28;20031;-70
2022/07/20 04:32:26;;;;;;;7.78;5.65;;;;;;;20.06;64.96;100089.34;5088782;28;20044;-67
2022/07/20 04:34:51;;;;;;;6.57;5.15;;;;;;;20.10;64.90;100101.31;5088791;28;20485;-68
2022/07/20 04:37:17;;;;;;;7.28;5.55;;;;;;;20.11;65.22;100102.97;5089151;28;20024;-70
2022/07/20 04:39:42;;;;;;;7.55;5.78;;;;;;;20.12;64.19;100109.19;5088437;28;20477;-55
2022/07/20 04:42:07;;;;;;;7.85;5.68;;;;;;;20.14;61.73;100118.69;5089546;28;20040;-54
2022/07/20 04:44:33;;;;;;;8.80;5.55;;;;;;;20.22;61.18;100117.53;5088597;28;20039;-54
2022/07/20 04:46:58;;;;;;;9.82;5.57;;;;;;;20.29;60.56;100118.22;5087024;28;20074;-48
2022/07/20 04:49:24;;;;;;;7.93;5.53;;;;;;;20.29;60.38;100129.03;5088129;28;20377;-49
2022/07/20 04:51:49;;;;;;;7.60;4.90;;;;;;;20.36;59.67;100131.59;5088496;28;20047;-56
2022/07/20 04:54:15;;;;;;;8.80;5.28;;;;;;;20.40;59.59;100138.16;5088393;28;20144;-48
2022/07/20 04:56:40;;;;;;;7.40;5.03;;;;;;;20.49;59.65;100147.56;5088234;28;20032;-51
2022/07/20 04:59:06;;;;;;;8.02;5.68;;;;;;;20.55;59.00;100157.44;5087877;28;20442;-54
2022/07/20 05:01:31;;;;;;;8.60;5.07;;;;;;;20.61;59.10;100145.66;5088087;28;20572;-50
2022/07/20 05:03:56;;;;;;;10.45;5.65;;;;;;;20.65;58.96;100154.91;5088134;28;20032;-48
2022/07/20 05:06:22;;;;;;;9.52;5.32;;;;;;;20.70;59.13;100154.19;5087925;28;20072;-52
2022/07/20 05:08:48;;;;;;;9.88;5.60;;;;;;;20.76;59.31;100148.63;5087738;28;20070;-55
2022/07/20 05:11:14;;;;;;;11.95;5.47;;;;;;;20.81;59.31;100145.22;5087936;28;20075;-51
2022/07/20 05:13:40;;;;;;;14.02;8.80;;;;;;;20.84;59.22;100144.72;5087871;28;20428;-50
2022/07/20 05:16:06;;;;;;;9.20;6.45;;;;;;;20.95;59.03;100145.72;5086975;28;20063;-51
2022/07/20 05:18:32;;;;;;;10.88;5.40;;;;;;;21.03;58.95;100142.63;5087836;28;20124;-54
2022/07/20 05:20:58;;;;;;;9.40;5.47;;;;;;;21.14;58.55;100144.44;5087452;28;20182;-54
2022/07/20 05:23:23;;;;;;;10.13;5.80;;;;;;;21.21;58.73;100153.22;5086474;28;20449;-47
2022/07/20 05:25:49;;;;;;;9.93;5.95;;;;;;;21.30;59.17;100148.25;5087622;28;20044;-48
2022/07/20 05:28:18;;;;;;;11.90;5.97;;;;;;;21.38;59.08;100148.66;5087718;28;20119;-49
2022/07/20 05:30:45;;;;;;;9.35;5.68;;;;;;;21.45;58.72;100147.66;5087394;28;20545;-51
2022/07/20 05:33:14;;;;;;;11.63;6.18;;;;;;;21.55;58.59;100151.34;5079515;28;20412;-49
2022/07/20 05:35:40;;;;;;;10.95;5.55;;;;;;;21.63;57.82;100145.50;5073587;28;20193;-46
2022/07/20 05:38:06;;;;;;;9.80;4.95;;;;;;;21.75;57.70;100150.84;5073899;28;20161;-52
2022/07/20 05:40:31;;;;;;;9.25;5.38;;;;;;;21.82;59.70;100151.47;5073743;28;20036;-51
2022/07/20 05:42:57;;;;;;;8.07;5.68;;;;;;;21.88;59.44;100149.66;5073678;28;20036;-50
2022/07/20 05:45:22;;;;;;;10.02;6.22;;;;;;;21.97;58.19;100147.34;5073730;28;20432;-48
2022/07/20 05:47:47;;;;;;;10.90;5.72;;;;;;;22.05;58.85;100153.16;5073733;28;20505;-51
2022/07/20 05:50:13;;;;;;;5.85;4.93;;;;;;;22.11;58.84;100156.81;5073384;28;20043;-53
2022/07/20 05:52:38;;;;;;;7.97;5.00;;;;;;;22.14;59.07;100157.09;5073720;28;20047;-47
2022/07/20 05:55:04;;;;;;;7.30;5.47;;;;;;;22.19;56.56;100146.31;5073720;28;20148;-48
2022/07/20 05:57:30;;;;;;;9.43;5.57;;;;;;;22.31;55.80;100158.97;5073491;28;20045;-52
2022/07/20 05:59:55;;;;;;;9.77;6.65;;;;;;;22.42;55.54;100166.13;5073246;28;20044;-46
2022/07/20 06:02:21;;;;;;;10.07;6.40;;;;;;;22.48;56.13;100165.94;5073495;28;20040;-51
2022/07/20 06:04:46;;;;;;;9.85;6.10;;;;;;;22.58;54.94;100164.44;5073313;28;20735;-47
2022/07/20 06:07:11;;;;;;;9.55;5.88;;;;;;;22.62;56.86;100166.34;5073353;28;20036;-47
2022/07/20 06:09:37;;;;;;;11.10;5.43;;;;;;;22.66;56.85;100169.41;5073189;28;20044;-47
2022/07/20 06:12:02;;;;;;;9.88;5.68;;;;;;;22.69;56.99;100171.59;5073293;28;20036;-48
2022/07/20 06:14:28;;;;;;;12.85;5.97;;;;;;;22.71;55.88;100170.28;5073596;28;20068;-49
2022/07/20 06:16:53;;;;;;;8.68;5.40;;;;;;;22.84;56.43;100176.38;5072011;28;20041;-52
2022/07/20 06:19:19;;;;;;;8.18;5.18;;;;;;;22.87;55.15;100182.13;5073056;28;20041;-47
2022/07/20 06:21:44;;;;;;;10.20;5.70;;;;;;;22.92;55.73;100173.22;5073143;28;20135;-46
2022/07/20 06:24:10;;;;;;;8.43;5.90;;;;;;;23.01;54.71;100177.13;5073195;28;20056;-47
2022/07/20 06:26:35;;;;;;;8.60;5.53;;;;;;;23.10;55.79;100177.50;5073002;28;20374;-49
2022/07/20 06:29:01;;;;;;;12.38;6.03;;;;;;;23.19;54.77;100181.38;5072808;28;20099;-47
2022/07/20 06:31:26;;;;;;;10.73;5.55;;;;;;;23.24;54.79;100184.94;5073026;28;20573;-48
2022/07/20 06:33:52;;;;;;;9.48;5.82;;;;;;;23.32;55.48;100185.56;5072990;28;20413;-50
2022/07/20 06:36:18;;;;;;;9.32;6.47;;;;;;;23.41;55.32;100184.84;5072782;28;20089;-47
2022/07/20 06:38:44;;;;;;;6.50;5.00;;;;;;;23.51;54.59;100190.34;5072679;28;20032;-52
2022/07/20 06:41:11;;;;;;;12.50;5.80;;;;;;;23.61;54.57;100181.50;5072954;28;20064;-54
2022/07/20 06:43:36;;;;;;;8.93;5.63;;;;;;;23.64;53.26;100177.41;5072826;28;20405;-49
2022/07/20 06:46:02;;;;;;;11.82;5.78;;;;;;;23.80;53.55;100196.31;5072258;28;20029;-54
2022/07/20 06:48:27;;;;;;;7.70;5.70;;;;;;;23.99;52.53;100188.50;5072723;28;20059;-48
2022/07/20 06:50:53;;;;;;;10.68;6.00;;;;;;;24.05;52.86;100194.81;5072395;28;20021;-50
2022/07/20 06:53:18;;;;;;;9.32;5.10;;;;;;;24.12;53.13;100198.09;5072597;28;20044;-48
2022/07/20 06:55:45;;;;;;;9.45;5.57;;;;;;;24.20;53.41;100192.19;5072514;28;20090;-50
2022/07/20 06:58:11;;;;;;;8.88;6.38;;;;;;;24.34;51.79;100193.38;5072542;28;20398;-50
2022/07/20 07:00:37;;;;;;;10.82;5.63;;;;;;;24.46;51.04;100198.59;5072069;28;20044;-50
2022/07/20 07:03:02;;;;;;;10.77;5.93;;;;;;;24.58;51.07;100199.19;5072330;28;20374;-53
2022/07/20 07:05:28;;;;;;;9.10;5.57;;;;;;;24.70;51.00;100193.50;5072204;28;20047;-49
2022/07/20 07:07:53;;;;;;;8.60;5.90;;;;;;;24.76;50.50;100191.59;5072414;28;20059;-48
2022/07/20 07:10:19;;;;;;;16.52;8.35;;;;;;;24.96;49.56;100188.94;5071870;28;20482;-46
2022/07/20 07:12:45;;;;;;;7.75;5.60;;;;;;;25.10;48.97;100200.16;5072420;28;20119;-47
2022/07/20 07:15:10;;;;;;;10.77;6.40;;;;;;;25.19;49.54;100208.63;5072034;28;20044;-46
2022/07/20 07:17:36;;;;;;;10.02;6.38;;;;;;;25.22;49.64;100203.44;5072126;28;20058;-46
2022/07/20 07:20:03;;;;;;;10.10;5.90;;;;;;;25.27;48.88;100206.19;5072014;28;20039;-47
2022/07/20 07:22:30;;;;;;;8.63;5.55;;;;;;;25.35;49.06;100202.91;5071817;28;20098;-47
2022/07/20 07:24:56;;;;;;;9.68;6.63;;;;;;;25.45;48.59;100196.66;5071923;28;20106;-51
2022/07/20 07:27:22;;;;;;;8.20;5.93;;;;;;;25.64;47.79;100205.09;5071860;28;20440;-48
2022/07/20 07:29:47;;;;;;;14.48;6.80;;;;;;;25.72;47.33;100207.28;5071746;28;20090;-47
2022/07/20 07:32:13;;;;;;;9.70;6.10;;;;;;;25.88;46.33;100205.34;5071744;28;20025;-49
2022/07/20 07:34:38;;;;;;;13.93;6.32;;;;;;;26.11;44.73;100207.50;5071800;28;20405;-51
2022/07/20 07:37:03;;;;;;;10.07;6.38;;;;;;;26.21;44.85;100201.19;5071761;28;20370;-48
2022/07/20 07:39:29;;;;;;;7.72;5.70;;;;;;;26.43;44.25;100198.97;5071418;28;20119;-49
2022/07/20 07:41:54;;;;;;;10.93;5.85;;;;;;;26.52;44.08;100199.19;5071748;28;20043;-65
2022/07/20 07:44:20;;;;;;;7.32;5.38;;;;;;;26.67;43.85;100210.06;5071845;28;20044;-64
2022/07/20 07:46:45;;;;;;;7.53;5.47;;;;;;;26.86;44.35;100201.22;5071616;28;20048;-64
2022/07/20 07:49:11;;;;;;;11.35;5.43;;;;;;;27.04;43.15;100204.09;5071211;28;20047;-65
2022/07/20 07:51:37;;;;;;;7.18;5.50;;;;;;;27.11;42.89;100201.06;5071586;28;20052;-65
2022/07/20 07:54:03;;;;;;;7.47;5.45;;;;;;;27.40;41.85;100209.34;5071368;28;20055;-65
2022/07/20 07:56:28;;;;;;;8.90;5.53;;;;;;;27.46;42.49;100207.41;5071210;28;20036;-65
2022/07/20 07:58:54;;;;;;;8.40;5.32;;;;;;;27.74;41.46;100209.38;5071126;28;20123;-66
2022/07/20 08:01:19;;;;;;;14.43;5.85;;;;;;;27.91;40.80;100205.34;5071410;28;20049;-66
2022/07/20 08:03:45;;;;;;;9.52;5.30;;;;;;;28.04;40.77;100202.78;5071410;28;20107;-65
2022/07/20 08:06:10;;;;;;;8.35;5.85;;;;;;;28.01;41.97;100205.25;5071326;28;20602;-65
2022/07/20 08:08:36;;;;;;;6.18;5.10;;;;;;;28.32;40.24;100212.06;5071100;28;20041;-64
2022/07/20 08:11:02;;;;;;;8.38;5.15;;;;;;;28.43;41.03;100204.56;5071254;28;20111;-66
2022/07/20 08:13:28;;;;;;;9.07;4.95;;;;;;;28.53;40.89;100203.59;5071354;28;20378;-63
2022/07/20 08:15:54;;;;;;;9.25;4.70;;;;;;;28.80;38.98;100209.25;5071265;28;20036;-63
2022/07/20 08:18:19;;;;;;;7.30;4.57;;;;;;;29.18;37.84;100209.28;5071278;28;20063;-63
2022/07/20 08:20:45;;;;;;;8.93;4.93;;;;;;;29.32;37.51;100209.34;5070854;28;20052;-63
2022/07/20 08:23:11;;;;;;;5.35;4.65;;;;;;;29.39;38.03;100210.59;5071227;28;20128;-62
2022/07/20 08:25:36;;;;;;;8.00;4.53;;;;;;;29.46;39.11;100219.25;5071116;28;20520;-63
2022/07/20 08:28:19;;;;;;;7.57;5.20;;;;;;;29.66;37.55;100217.31;5070074;28;20044;-63
2022/07/20 08:30:47;;;;;;;6.63;4.88;;;;;;;29.75;40.18;100221.00;5070974;28;20025;-62
2022/07/20 08:33:12;;;;;;;6.43;5.40;;;;;;;29.83;38.39;100216.75;5071214;28;20518;-63
2022/07/20 08:35:39;;;;;;;12.27;6.15;;;;;;;29.94;39.90;100223.69;5071182;28;20033;-62
2022/07/20 08:38:05;;;;;;;9.07;5.28;;;;;;;30.00;39.80;100226.03;5071195;28;20560;-63
2022/07/20 08:40:31;;;;;;;12.43;6.38;;;;;;;30.11;37.97;100225.88;5070788;28;20115;-60
2022/07/20 08:42:57;;;;;;;11.05;6.78;;;;;;;30.12;39.16;100224.75;5071163;28;20051;-61
2022/07/20 08:45:23;;;;;;;10.10;5.50;;;;;;;30.24;38.42;100239.59;5071071;28;20113;-62
2022/07/20 08:47:49;;;;;;;9.88;6.97;;;;;;;30.42;39.02;100232.38;5069812;28;20489;-63
2022/07/20 08:50:21;;;;;;;10.70;7.33;;;;;;;30.43;38.76;100228.53;5069397;28;20032;-62
2022/07/20 08:52:46;;;;;;;13.80;8.48;;;;;;;30.58;40.18;100235.63;5070898;28;20048;-62
2022/07/20 08:55:12;;;;;;;14.60;9.73;;;;;;;30.64;39.27;100237.16;5070965;28;20024;-62
2022/07/20 08:57:37;;;;;;;19.63;9.43;;;;;;;30.73;40.25;100232.59;5069554;28;20455;-63
2022/07/20 09:00:04;;;;;;;21.85;9.63;;;;;;;30.92;40.22;100232.47;5070165;28;20443;-63
2022/07/20 09:02:48;;;;;;;19.02;10.55;;;;;;;31.09;38.77;100234.53;5070765;28;20048;-63
2022/07/20 09:05:14;;;;;;;12.20;9.80;;;;;;;31.28;39.46;100237.16;5070816;28;20056;-62
2022/07/20 09:07:44;;;;;;;10.50;9.43;;;;;;;31.27;39.50;100230.03;5071604;28;20071;-62
2022/07/20 09:10:22;;;;;;;13.95;10.52;;;;;;;31.36;40.19;100230.91;5074077;28;20350;-60
2022/07/20 09:13:06;;;;;;;15.30;11.45;;;;;;;31.54;39.67;100229.09;5074585;28;20063;-61
2022/07/20 09:15:36;;;;;;;18.67;13.43;;;;;;;31.57;39.50;100223.78;5074312;28;20048;-63
2022/07/20 09:18:17;;;;;;;15.52;12.98;;;;;;;31.69;41.11;100223.22;5074136;28;20115;-63
2022/07/20 09:20:54;;;;;;;16.58;13.40;;;;;;;31.75;39.87;100229.38;5072009;28;20502;-63
2022/07/20 09:23:48;;;;;;;14.60;12.88;;;;;;;31.82;39.62;100238.03;5074432;28;20039;-63
2022/07/20 09:26:16;;;;;;;16.80;12.65;;;;;;;32.04;39.80;100238.03;5066531;28;20048;-63
2022/07/20 09:28:50;;;;;;;18.92;13.52;;;;;;;32.23;38.41;100235.03;5074043;28;20043;-64
2022/07/20 09:31:20;;;;;;;20.17;12.48;;;;;;;32.39;39.20;100238.19;5074269;28;20043;-53
2022/07/20 09:34:08;;;;;;;14.73;11.57;;;;;;;32.34;37.79;100236.41;5074232;28;20033;-50
2022/07/20 09:36:47;;;;;;;18.70;12.93;;;;;;;32.79;38.19;100236.16;5074215;28;20115;-50
2022/07/20 09:39:18;;;;;;;17.35;13.45;;;;;;;33.07;38.99;100239.50;5073788;28;20482;-63
2022/07/20 09:41:50;;;;;;;15.60;13.32;;;;;;;32.96;38.16;100234.63;5074056;28;20032;-64
2022/07/20 09:44:27;;;;;;;15.50;13.88;;;;;;;33.01;38.79;100237.22;5074089;28;20036;-63
2022/07/20 09:46:53;;;;;;;21.85;13.93;;;;;;;33.18;39.76;100242.72;5074047;28;20035;-61
2022/07/20 09:49:18;;;;;;;19.10;14.00;;;;;;;33.25;38.11;100236.72;5073741;28;20020;-63
2022/07/20 09:51:57;;;;;;;15.20;12.93;;;;;;;33.50;37.63;100238.69;5073928;28;20401;-62
2022/07/20 09:54:23;;;;;;;16.90;12.63;;;;;;;33.75;38.09;100231.50;5073909;28;20032;-64
2022/07/20 09:56:50;;;;;;;21.13;12.47;;;;;;;33.78;36.81;100241.91;5073980;28;20028;-65
2022/07/20 09:59:17;;;;;;;14.18;12.68;;;;;;;33.90;37.04;100232.91;5072172;28;20555;-63
2022/07/20 10:01:46;;;;;;;13.68;12.27;;;;;;;34.15;37.91;100231.22;5073687;28;20378;-62
2022/07/20 10:04:12;;;;;;;16.02;12.45;;;;;;;34.29;36.69;100224.31;5073648;28;20044;-62
2022/07/20 10:06:40;;;;;;;13.95;12.13;;;;;;;34.47;37.32;100232.56;5073517;28;20037;-64
2022/07/20 10:09:06;;;;;;;22.65;12.45;;;;;;;34.59;35.86;100229.09;5072015;28;20101;-62
2022/07/20 10:11:33;;;;;;;16.02;11.80;;;;;;;34.94;35.62;100236.03;5073599;28;20033;-62
2022/07/20 10:14:01;;;;;;;18.13;11.95;;;;;;;34.74;36.40;100231.25;5073520;28;20036;-63
2022/07/20 10:16:30;;;;;;;14.73;12.38;;;;;;;34.92;36.28;100232.00;5073357;28;20550;-63
2022/07/20 10:18:56;;;;;;;16.25;11.57;;;;;;;35.02;35.21;100237.94;5073141;28;20043;-63
2022/07/20 10:21:36;;;;;;;14.85;11.73;;;;;;;35.17;34.96;100232.94;5073134;28;20068;-63
2022/07/20 10:24:22;;;;;;;13.85;11.70;;;;;;;35.30;33.61;100240.16;5073259;28;20059;-63
2022/07/20 10:26:50;;;;;;;13.55;11.70;;;;;;;35.53;32.84;100230.34;5073210;28;20032;-62
2022/07/20 10:29:31;;;;;;;14.93;11.35;;;;;;;35.84;35.08;100234.59;5072858;28;20041;-63
2022/07/20 10:32:00;;;;;;;18.20;12.13;;;;;;;36.09;32.95;100235.47;5073018;28;20036;-63
2022/07/20 10:34:39;;;;;;;14.07;10.85;;;;;;;36.03;32.77;100231.31;5073094;28;20044;-63
2022/07/20 10:37:34;;;;;;;17.05;11.57;;;;;;;36.44;32.45;100235.84;5073342;28;20028;-65
2022/07/20 10:40:11;;;;;;;12.05;10.98;;;;;;;36.73;32.91;100237.56;5072827;28;20576;-65
2022/07/20 10:42:39;;;;;;;16.13;11.35;;;;;;;36.89;32.64;100232.91;5071627;28;20186;-65
2022/07/20 10:45:11;;;;;;;13.25;10.98;;;;;;;37.21;31.73;100244.16;5072900;28;20020;-65
2022/07/20 10:47:45;;;;;;;15.40;12.10;;;;;;;37.54;31.29;100230.06;5072843;28;20036;-65
2022/07/20 10:50:32;;;;;;;13.98;11.82;;;;;;;37.38;32.67;100227.25;5072475;28;20039;-65
2022/07/20 10:53:20;;;;;;;15.10;11.90;;;;;;;37.64;31.78;100226.78;5072662;28;20036;-65
2022/07/20 10:55:54;;;;;;;16.10;11.48;;;;;;;37.18;30.77;100240.16;5072641;28;20501;-65
2022/07/20 10:58:24;;;;;;;17.00;12.48;;;;;;;37.21;31.42;100241.38;5072233;28;20044;-65
2022/07/20 11:01:01;;;;;;;15.27;12.15;;;;;;;37.59;32.04;100231.78;5072199;28;20036;-66
2022/07/20 11:03:35;;;;;;;15.50;11.65;;;;;;;37.75;31.98;100246.47;5072616;28;20048;-66
2022/07/20 11:06:10;;;;;;;16.38;11.75;;;;;;;37.69;30.90;100239.56;5072415;28;20040;-66
2022/07/20 11:08:44;;;;;;;13.60;12.02;;;;;;;37.72;30.40;100245.25;5070611;28;20033;-65
2022/07/20 11:11:25;;;;;;;15.57;11.63;;;;;;;37.94;29.58;100237.47;5072595;28;20120;-65
2022/07/20 11:13:50;;;;;;;15.48;12.38;;;;;;;37.73;30.34;100235.72;5072510;28;20509;-65
2022/07/20 11:16:21;;;;;;;19.00;11.97;;;;;;;37.99;30.34;100234.44;5072569;28;20032;-65
2022/07/20 11:18:47;;;;;;;14.48;10.40;;;;;;;37.98;27.59;100230.88;5072057;28;20055;-65
2022/07/20 11:21:13;;;;;;;;;;;;;;;37.85;27.72;100229.34;5072438;28;20127;-65
2022/07/20 11:23:50;;;;;;;16.25;10.10;;;;;;;37.81;27.96;100225.63;5072200;28;20007;-66
2022/07/20 11:26:19;;;;;;;12.35;10.13;;;;;;;37.97;28.92;100211.78;5069986;28;20051;-65
2022/07/20 11:29:03;;;;;;;12.98;10.13;;;;;;;37.77;27.95;100223.91;5071120;28;20124;-60
2022/07/20 11:31:29;;;;;;;13.35;10.07;;;;;;;37.61;28.20;100210.78;5071291;28;20064;-65
2022/07/20 11:33:58;;;;;;;12.73;10.60;;;;;;;37.97;28.43;100201.47;5071801;28;20032;-65
2022/07/20 11:36:29;;;;;;;15.35;10.43;;;;;;;37.98;27.91;100203.06;5071569;28;20044;-64
2022/07/20 11:38:59;;;;;;;11.73;10.52;;;;;;;37.62;28.90;100217.97;5070929;28;20035;-64
2022/07/20 11:41:33;;;;;;;13.00;9.43;;;;;;;37.57;27.72;100198.00;5071284;28;20054;-64
2022/07/20 11:43:59;;;;;;;14.70;10.32;;;;;;;37.67;28.72;100203.00;5071498;28;20060;-63
2022/07/20 11:46:27;;;;;;;11.68;10.38;;;;;;;37.93;28.50;100206.09;5071491;28;20248;-64
2022/07/20 11:49:04;;;;;;;11.35;9.77;;;;;;;37.99;28.09;100203.88;5069690;28;20044;-63
2022/07/20 11:51:32;;;;;;;12.35;10.70;;;;;;;37.46;27.84;100204.06;5070227;28;20504;-63
2022/07/20 11:53:57;;;;;;;13.43;10.35;;;;;;;37.61;27.63;100210.00;5070093;28;20389;-63
2022/07/20 11:56:25;;;;;;;13.93;9.67;;;;;;;37.96;29.21;100208.19;5071167;28;20037;-64
2022/07/20 11:58:52;;;;;;;15.13;10.48;;;;;;;37.91;27.46;100197.31;5070735;28;20033;-65
2022/07/20 12:01:23;;;;;;;18.83;10.75;;;;;;;37.99;28.18;100203.88;5071389;28;20062;-64
2022/07/20 12:03:52;;;;;;;15.45;9.85;;;;;;;38.37;29.85;100211.59;5070101;28;20405;-65
2022/07/20 12:06:18;;;;;;;11.43;10.13;;;;;;;38.69;27.94;100212.31;5071171;28;20040;-64
2022/07/20 12:08:44;;;;;;;11.65;9.98;;;;;;;39.08;28.45;100201.25;5070435;28;20032;-63
2022/07/20 12:11:11;;;;;;;14.00;9.65;;;;;;;39.18;26.78;100203.47;5069937;28;20421;-64
2022/07/20 12:13:48;;;;;;;13.32;9.90;;;;;;;39.27;26.37;100195.69;5071211;28;20071;-64
2022/07/20 12:16:15;;;;;;;12.32;10.00;;;;;;;38.81;27.70;100209.44;5071275;28;20446;-64
2022/07/20 12:18:50;;;;;;;15.90;9.65;;;;;;;38.87;27.59;100198.84;5070346;28;20090;-63
2022/07/20 12:21:22;;;;;;;14.88;9.88;;;;;;;38.01;27.21;100195.97;5071146;28;20048;-63
2022/07/20 12:23:55;;;;;;;13.02;10.23;;;;;;;37.83;28.10;100201.09;5071210;28;20040;-64
2022/07/20 12:26:28;;;;;;;12.63;10.10;;;;;;;37.41;28.19;100206.28;5071095;28;20038;-64
2022/07/20 12:28:56;;;;;;;13.68;10.10;;;;;;;36.49;28.87;100215.41;5070467;28;20036;-64
2022/07/20 12:31:26;;;;;;;13.07;10.18;;;;;;;36.23;29.93;100210.97;5071214;28;20435;-64
2022/07/20 12:34:07;;;;;;;15.07;11.10;;;;;;;36.30;31.28;100211.22;5069857;28;20036;-64
2022/07/20 12:36:47;;;;;;;12.98;10.13;;;;;;;36.63;30.70;100210.28;5070945;28;20040;-63
2022/07/20 12:39:15;;;;;;;17.13;10.73;;;;;;;36.93;30.14;100231.06;5070003;28;20062;-63
2022/07/20 12:41:41;;;;;;;11.65;10.38;;;;;;;37.12;28.51;100227.66;5070752;28;20079;-64
2022/07/20 12:44:25;;;;;;;11.50;9.82;;;;;;;37.24;29.38;100218.50;5072875;28;20490;-63
2022/07/20 12:46:55;;;;;;;10.63;9.25;;;;;;;37.58;28.75;100205.16;5074881;28;20078;-63
2022/07/20 12:49:26;;;;;;;12.65;9.65;;;;;;;37.55;29.15;100223.31;5074180;28;20193;-64
2022/07/20 12:51:52;;;;;;;14.77;9.65;;;;;;;37.26;28.28;100224.50;5073534;28;20082;-64
2022/07/20 12:54:18;;;;;;;;;;;;;;;36.51;29.80;100216.66;5074844;28;20124;-64
2022/07/20 12:56:44;;;;;;;16.50;10.05;;;;;;;36.17;30.20;100209.59;5074487;28;19951;-63
2022/07/20 12:59:11;;;;;;;16.52;10.98;;;;;;;35.64;31.28;100213.31;5074004;28;20029;-64
2022/07/20 13:01:36;;;;;;;;;;;;;;;34.95;31.88;100210.00;5075129;28;20042;-64
2022/07/20 13:04:02;;;;;;;13.38;10.48;;;;;;;34.24;32.70;100205.19;5074610;28;19912;-63
2022/07/20 13:06:27;;;;;;;14.27;10.83;;;;;;;34.10;33.75;100192.72;5074455;28;20028;-64
2022/07/20 13:08:53;;;;;;;12.87;11.57;;;;;;;33.90;34.27;100192.28;5073491;28;20490;-63
2022/07/20 13:11:18;;;;;;;13.37;11.60;;;;;;;33.38;35.26;100186.06;5074475;28;20039;-64
2022/07/20 13:13:44;;;;;;;17.17;11.20;;;;;;;33.67;34.78;100186.19;5073323;28;20402;-64
2022/07/20 13:16:09;;;;;;;17.47;11.63;;;;;;;33.65;34.94;100196.78;5073263;28;20405;-63
2022/07/20 13:18:35;;;;;;;13.30;11.03;;;;;;;33.76;35.27;100199.97;5073857;28;20046;-64
2022/07/20 13:21:00;;;;;;;15.90;11.47;;;;;;;33.54;35.27;100205.72;5073918;28;20036;-64
2022/07/20 13:23:26;;;;;;;13.77;10.67;;;;;;;33.53;35.20;100206.88;5074212;28;20129;-63
2022/07/20 13:25:51;;;;;;;12.77;10.33;;;;;;;33.42;34.58;100211.91;5056212;28;20040;-64
2022/07/20 13:28:18;;;;;;;12.97;10.50;;;;;;;33.48;34.67;100208.66;5074271;28;20082;-64
2022/07/20 13:30:44;;;;;;;13.75;10.57;;;;;;;33.53;34.50;100206.88;5073381;28;20505;-63
2022/07/20 13:33:10;;;;;;;13.13;10.17;;;;;;;33.77;33.45;100201.59;5072778;28;20036;-63
2022/07/20 13:35:37;;;;;;;13.00;10.23;;;;;;;33.88;34.10;100208.38;5073891;28;20036;-62
2022/07/20 13:38:03;;;;;;;13.65;9.55;;;;;;;34.19;33.87;100204.56;5073713;28;20048;-65
2022/07/20 13:40:29;;;;;;;14.47;10.20;;;;;;;34.20;33.56;100200.66;5073414;28;20086;-63
2022/07/20 13:42:55;;;;;;;16.43;10.47;;;;;;;34.21;33.52;100200.31;5073889;28;20107;-63
2022/07/20 13:45:21;;;;;;;13.60;10.95;;;;;;;34.08;33.30;100190.28;5072615;28;20083;-64
2022/07/20 13:47:46;;;;;;;15.77;10.73;;;;;;;34.24;33.71;100199.66;5073808;28;20079;-64
2022/07/20 13:50:12;;;;;;;11.93;10.73;;;;;;;34.26;33.06;100194.59;5072990;28;20040;-64
2022/07/20 13:52:39;;;;;;;12.93;10.75;;;;;;;34.14;34.28;100194.50;5071905;28;20090;-64
2022/07/20 13:55:05;;;;;;;12.27;11.02;;;;;;;34.15;33.61;100193.34;5073229;28;20048;-64
2022/07/20 13:57:31;;;;;;;13.18;10.57;;;;;;;34.21;33.28;100191.22;5073514;28;20493;-64
2022/07/20 13:59:57;;;;;;;15.77;10.60;;;;;;;34.12;33.06;100187.69;5072959;28;20037;-65
2022/07/20 14:02:22;;;;;;;18.57;11.20;;;;;;;34.14;33.35;100186.19;5073548;28;20112;-65
2022/07/20 14:04:48;;;;;;;16.83;10.73;;;;;;;34.27;33.62;100190.69;5073505;28;20047;-65
2022/07/20 14:07:13;;;;;;;12.70;10.37;;;;;;;34.32;33.21;100186.94;5073169;28;20048;-64
2022/07/20 14:09:39;;;;;;;11.33;10.23;;;;;;;34.36;33.26;100190.63;5072536;28;20401;-63
2022/07/20 14:12:05;;;;;;;12.97;9.80;;;;;;;34.12;32.73;100185.75;5073430;28;20040;-63
2022/07/20 14:14:30;;;;;;;16.70;10.45;;;;;;;34.24;32.93;100183.09;5073399;28;20036;-62
2022/07/20 14:16:56;;;;;;;16.23;10.30;;;;;;;34.14;33.83;100186.19;5073312;28;20044;-64
2022/07/20 14:19:22;;;;;;;14.57;10.57;;;;;;;34.12;33.48;100182.97;5072361;28;20033;-65
2022/07/20 14:21:48;;;;;;;12.87;10.10;;;;;;;33.89;33.04;100182.38;5071954;28;20047;-65
2022/07/20 14:24:13;;;;;;;15.63;10.67;;;;;;;34.03;33.35;100179.41;5073131;28;20356;-64
2022/07/20 14:26:39;;;;;;;13.23;10.17;;;;;;;34.20;34.78;100173.81;5072935;28;20055;-63
2022/07/20 14:29:04;;;;;;;12.87;9.93;;;;;;;34.24;34.29;100160.97;5072314;28;20036;-63
2022/07/20 14:31:31;;;;;;;13.00;11.07;;;;;;;34.40;33.50;100163.16;5073063;28;20036;-62
2022/07/20 14:33:57;;;;;;;11.20;9.88;;;;;;;34.40;34.30;100154.84;5072852;28;20048;-60
2022/07/20 14:36:23;;;;;;;12.13;10.10;;;;;;;34.49;34.53;100155.63;5072687;28;20185;-60
2022/07/20 14:38:50;;;;;;;12.20;10.60;;;;;;;34.55;33.96;100148.75;5072080;28;20028;-62
2022/07/20 14:41:17;;;;;;;15.93;10.80;;;;;;;34.43;33.98;100138.44;5072763;28;20539;-61
2022/07/20 14:43:42;;;;;;;15.02;11.23;;;;;;;34.40;33.82;100143.78;5072783;28;20040;-63
2022/07/20 14:46:08;;;;;;;13.27;10.73;;;;;;;34.31;33.01;100138.31;5072567;28;20059;-63
2022/07/20 14:48:33;;;;;;;11.93;10.80;;;;;;;34.30;33.60;100133.94;5072097;28;20398;-63
2022/07/20 14:50:59;;;;;;;11.20;10.10;;;;;;;34.36;34.28;100132.59;5071747;28;20052;-63
2022/07/20 14:53:24;;;;;;;11.27;10.27;;;;;;;34.35;34.01;100138.44;5072716;28;20037;-62
2022/07/20 14:55:50;;;;;;;18.10;10.50;;;;;;;34.47;34.34;100130.28;5072667;28;20102;-62
2022/07/20 14:58:15;;;;;;;15.53;11.17;;;;;;;34.43;34.43;100121.03;5072635;28;20124;-62
2022/07/20 15:00:42;;;;;;;13.57;11.63;;;;;;;34.14;34.32;100117.13;5072454;28;20490;-60
2022/07/20 15:03:08;;;;;;;13.07;10.52;;;;;;;34.20;34.14;100106.69;5072593;28;20142;-62
2022/07/20 15:05:33;;;;;;;15.07;11.80;;;;;;;34.04;34.34;100103.72;5071482;28;20036;-62
2022/07/20 15:08:00;;;;;;;15.40;11.73;;;;;;;34.13;34.39;100104.44;5072391;28;20029;-61
2022/07/20 15:10:25;;;;;;;13.68;10.88;;;;;;;34.10;34.00;100101.53;5072138;28;20090;-62
2022/07/20 15:12:51;;;;;;;12.60;10.30;;;;;;;34.20;34.62;100101.97;5072379;28;20037;-62
2022/07/20 15:15:16;;;;;;;12.10;10.60;;;;;;;34.18;34.07;100093.22;5072267;28;20044;-60
2022/07/20 15:17:42;;;;;;;12.67;10.43;;;;;;;34.21;34.25;100088.97;5072396;28;20036;-62
2022/07/20 15:20:08;;;;;;;12.40;10.90;;;;;;;34.14;35.04;100091.44;5071976;28;20066;-61
2022/07/20 15:22:33;;;;;;;14.07;10.13;;;;;;;34.18;34.93;100087.69;5072031;28;20097;-62
2022/07/20 15:24:59;;;;;;;16.30;11.23;;;;;;;34.14;35.32;100085.91;5072110;28;20131;-60
2022/07/20 15:27:24;;;;;;;16.93;10.77;;;;;;;34.08;34.93;100096.34;5072167;28;20041;-61
2022/07/20 15:29:50;;;;;;;16.30;11.00;;;;;;;34.08;35.36;100095.53;5071848;28;20039;-60
2022/07/20 15:32:15;;;;;;;13.20;10.80;;;;;;;34.01;35.22;100094.13;5071974;28;20044;-62
2022/07/20 15:34:40;;;;;;;13.40;11.27;;;;;;;33.93;35.24;100102.47;5070788;28;20160;-61
2022/07/20 15:37:06;;;;;;;13.97;10.60;;;;;;;33.82;35.55;100103.94;5071784;28;20428;-62
2022/07/20 15:39:36;;;;;;;13.17;11.03;;;;;;;33.78;36.73;100105.72;5071512;28;20101;-67
2022/07/20 15:42:03;;;;;;;14.57;11.80;;;;;;;33.79;37.09;100110.94;5071722;28;20032;-60